createdAt,value
2023-03-16T00:02:20.264Z,93.93
2023-03-16T00:05:29.674Z,94.39
2023-03-16T00:08:44.156Z,94.91
2023-03-16T00:11:54.133Z,95.14
2023-03-16T00:15:04.644Z,95.24
2023-03-16T00:18:18.828Z,95.02
2023-03-16T00:21:24.349Z,94.78
2023-03-16T00:24:32.359Z,94.78
2023-03-16T00:27:37.845Z,95.28
2023-03-16T00:30:49.280Z,95.32
2023-03-16T00:34:02.900Z,95.65
2023-03-16T00:37:17.180Z,95.54
2023-03-16T00:40:37.254Z,96.34
2023-03-16T00:43:44.887Z,96.27
2023-03-16T00:47:04.153Z,96.46
2023-03-16T00:50:15.683Z,96.10
2023-03-16T00:53:30.429Z,96.15
2023-03-16T00:56:43.083Z,96.14
2023-03-16T01:00:02.409Z,96.09
2023-03-16T01:03:10.972Z,96.29
2023-03-16T01:06:20.962Z,96.64
2023-03-16T01:09:30.630Z,97.18
2023-03-16T01:12:49.118Z,97.98
2023-03-16T01:15:57.340Z,97.58
2023-03-16T01:19:02.924Z,97.47
2023-03-16T01:22:13.233Z,97.45
2023-03-16T01:25:24.296Z,97.30
2023-03-16T01:28:34.251Z,97.42
2023-03-16T01:31:39.878Z,97.84
2023-03-16T01:34:45.975Z,97.85
2023-03-16T01:37:56.863Z,98.11
2023-03-16T01:41:04.862Z,99.08
2023-03-16T01:44:14.225Z,99.26
2023-03-16T01:47:20.060Z,99.52
2023-03-16T01:50:28.899Z,99.99
2023-03-16T01:53:37.198Z,100.00
2023-03-16T01:56:50.431Z,99.99
2023-03-16T02:00:09.786Z,99.96
2023-03-16T02:03:34.653Z,99.89
2023-03-16T02:06:50.444Z,99.96
2023-03-16T02:10:02.482Z,100.00
2023-03-16T02:13:11.254Z,100.00
2023-03-16T02:16:22.747Z,100.00
2023-03-16T02:19:39.625Z,99.98
2023-03-16T02:23:06.078Z,99.79
2023-03-16T02:26:17.295Z,99.66
2023-03-16T02:29:30.161Z,99.74
2023-03-16T02:32:39.075Z,99.78
2023-03-16T02:35:44.666Z,99.88
2023-03-16T02:38:52.500Z,99.70
2023-03-16T02:42:01.454Z,99.71
2023-03-16T02:45:08.278Z,99.59
2023-03-16T02:48:28.218Z,99.45
2023-03-16T02:51:33.919Z,99.37
2023-03-16T02:54:49.471Z,99.39
2023-03-16T02:58:05.499Z,99.49
2023-03-16T03:01:13.449Z,99.69
2023-03-16T03:04:23.492Z,99.83
2023-03-16T03:07:31.933Z,100.00
2023-03-16T03:10:42.920Z,99.91
2023-03-16T03:13:51.047Z,99.98
2023-03-16T03:17:00.053Z,100.00
2023-03-16T03:20:17.815Z,100.00
2023-03-16T03:23:32.261Z,100.00
2023-03-16T03:26:40.045Z,100.00
2023-03-16T03:29:48.560Z,100.00
2023-03-16T03:32:56.843Z,100.00
2023-03-16T03:36:04.819Z,100.00
2023-03-16T03:39:13.608Z,100.00
2023-03-16T03:42:28.455Z,100.00
2023-03-16T03:45:40.523Z,100.00
2023-03-16T03:48:46.274Z,100.00
2023-03-16T03:51:52.114Z,100.00
2023-03-16T03:55:14.144Z,100.00
2023-03-16T03:58:19.848Z,100.00
2023-03-16T04:01:32.621Z,100.00
2023-03-16T04:04:38.864Z,100.00
2023-03-16T04:07:44.279Z,100.00
2023-03-16T04:11:02.065Z,100.00
2023-03-16T04:14:07.815Z,100.00
2023-03-16T04:17:17.114Z,100.00
2023-03-16T04:20:34.277Z,100.00
2023-03-16T04:23:42.638Z,100.00
2023-03-16T04:26:48.648Z,100.00
2023-03-16T04:30:11.261Z,100.00
2023-03-16T04:33:19.941Z,100.00
2023-03-16T04:36:28.209Z,100.00
2023-03-16T04:39:36.078Z,100.00
2023-03-16T04:42:41.952Z,100.00
2023-03-16T04:45:55.162Z,100.00
2023-03-16T04:49:19.587Z,100.00
2023-03-16T04:52:45.256Z,100.00
2023-03-16T04:55:53.150Z,100.00
2023-03-16T04:59:01.826Z,100.00
2023-03-16T05:02:11.429Z,100.00
2023-03-16T05:05:26.989Z,100.00
2023-03-16T05:08:35.525Z,100.00
2023-03-16T05:11:54.832Z,100.00
2023-03-16T05:15:00.510Z,100.00
2023-03-16T05:18:34.856Z,100.00
2023-03-16T05:21:45.807Z,100.00
2023-03-16T05:24:56.515Z,100.00
2023-03-16T05:28:06.481Z,100.00
2023-03-16T05:31:20.575Z,100.00
2023-03-16T05:34:35.739Z,100.00
2023-03-16T05:37:52.835Z,100.00
2023-03-16T05:41:05.925Z,100.00
2023-03-16T05:44:34.654Z,100.00
2023-03-16T05:48:12.210Z,100.00
2023-03-16T05:51:37.884Z,100.00
2023-03-16T05:54:45.826Z,100.00
2023-03-16T05:57:54.426Z,100.00
2023-03-16T06:01:12.833Z,100.00
2023-03-16T06:04:19.653Z,100.00
2023-03-16T06:07:26.016Z,100.00
2023-03-16T06:10:35.857Z,100.00
2023-03-16T06:13:51.385Z,100.00
2023-03-16T06:17:10.385Z,100.00
2023-03-16T06:20:19.503Z,100.00
2023-03-16T06:23:30.599Z,100.00
2023-03-16T06:26:41.546Z,100.00
2023-03-16T06:29:49.392Z,99.69
2023-03-16T06:33:00.162Z,99.02
2023-03-16T06:36:09.592Z,98.80
2023-03-16T06:39:18.120Z,98.37
2023-03-16T06:42:26.775Z,97.64
2023-03-16T06:45:35.786Z,97.62
2023-03-16T06:48:42.103Z,97.44
2023-03-16T06:51:47.847Z,97.02
2023-03-16T06:54:53.742Z,96.96
2023-03-16T06:58:03.362Z,96.25
2023-03-16T07:01:09.010Z,95.52
2023-03-16T07:04:16.959Z,95.74
2023-03-16T07:07:24.536Z,95.50
2023-03-16T07:10:32.527Z,95.29
2023-03-16T07:13:38.429Z,94.60
2023-03-16T07:16:44.786Z,93.76
2023-03-16T07:19:50.781Z,93.61
2023-03-16T07:22:57.256Z,93.81
2023-03-16T07:26:03.710Z,93.02
2023-03-16T07:29:10.868Z,92.58
2023-03-16T07:32:17.281Z,92.77
2023-03-16T07:35:28.431Z,93.22
2023-03-16T07:38:41.422Z,91.66
2023-03-16T07:41:49.765Z,88.13
2023-03-16T07:44:58.985Z,86.35
2023-03-16T07:48:07.311Z,85.80
2023-03-16T07:51:19.825Z,85.32
2023-03-16T07:54:36.001Z,85.09
2023-03-16T07:57:47.943Z,84.66
2023-03-16T08:00:58.810Z,84.03
2023-03-16T08:04:04.815Z,82.41
2023-03-16T08:07:15.484Z,82.02
2023-03-16T08:10:39.758Z,81.49
2023-03-16T08:13:56.762Z,80.73
2023-03-16T08:17:07.298Z,78.06
2023-03-16T08:20:21.762Z,78.01
2023-03-16T08:23:36.210Z,77.97
2023-03-16T08:26:45.439Z,77.77
2023-03-16T08:29:54.093Z,76.18
2023-03-16T08:33:23.139Z,76.66
2023-03-16T08:36:31.786Z,76.52
2023-03-16T08:39:51.735Z,76.48
2023-03-16T08:43:17.219Z,75.65
2023-03-16T08:46:24.396Z,75.49
2023-03-16T08:49:52.335Z,74.96
2023-03-16T08:52:58.305Z,76.12
2023-03-16T08:56:04.829Z,76.02
2023-03-16T08:59:30.826Z,76.15
2023-03-16T09:02:45.753Z,75.89
2023-03-16T09:05:51.615Z,75.59
2023-03-16T09:09:09.509Z,74.84
2023-03-16T09:12:26.426Z,75.24
2023-03-16T09:15:51.817Z,74.77
2023-03-16T09:19:16.956Z,72.95
2023-03-16T09:22:28.559Z,72.45
2023-03-16T09:25:54.654Z,71.38
2023-03-16T09:29:21.920Z,71.21
2023-03-16T09:32:30.953Z,71.50
2023-03-16T09:35:46.527Z,71.40
2023-03-16T09:39:03.842Z,70.95
2023-03-16T09:42:35.324Z,70.98
2023-03-16T09:45:54.157Z,70.62
2023-03-16T09:49:00.500Z,69.93
2023-03-16T09:52:33.438Z,70.91
2023-03-16T09:55:50.186Z,68.84
2023-03-16T09:59:10.555Z,68.84
2023-03-16T10:02:32.088Z,69.18
2023-03-16T10:05:41.123Z,69.48
2023-03-16T10:08:53.166Z,68.21
2023-03-16T10:11:59.797Z,69.00
2023-03-16T10:15:11.907Z,68.70
2023-03-16T10:18:32.511Z,67.63
2023-03-16T10:21:52.517Z,67.63
2023-03-16T10:25:12.958Z,68.13
2023-03-16T10:28:29.665Z,69.09
2023-03-16T10:31:38.449Z,67.18
2023-03-16T10:34:45.639Z,66.56
2023-03-16T10:38:10.556Z,65.73
2023-03-16T10:41:25.533Z,65.48
2023-03-16T10:44:30.994Z,64.65
2023-03-16T10:47:45.086Z,64.79
2023-03-16T10:51:04.935Z,64.25
2023-03-16T10:54:16.031Z,65.32
2023-03-16T10:57:34.075Z,65.44
2023-03-16T11:00:45.571Z,65.48
2023-03-16T11:03:52.241Z,64.03
2023-03-16T11:07:09.248Z,61.62
2023-03-16T11:10:34.587Z,60.99
2023-03-16T11:13:47.169Z,60.89
2023-03-16T11:17:10.795Z,60.21
2023-03-16T11:20:18.323Z,60.14
2023-03-16T11:23:35.781Z,58.17
2023-03-16T11:26:55.786Z,58.53
2023-03-16T11:30:24.963Z,57.75
2023-03-16T11:33:51.237Z,56.30
2023-03-16T11:37:19.412Z,56.36
2023-03-16T11:40:44.788Z,55.39
2023-03-16T11:43:52.912Z,56.26
2023-03-16T11:47:18.864Z,56.31
2023-03-16T11:50:49.823Z,54.01
2023-03-16T11:54:02.601Z,51.83
2023-03-16T11:57:29.528Z,52.49
2023-03-16T12:00:51.667Z,53.59
2023-03-16T12:04:07.619Z,52.23
2023-03-16T12:07:25.925Z,51.85
2023-03-16T12:10:36.326Z,50.97
2023-03-16T12:14:01.682Z,51.27
2023-03-16T12:17:11.146Z,52.30
2023-03-16T12:20:29.601Z,51.32
2023-03-16T12:23:53.486Z,51.05
2023-03-16T12:27:02.638Z,52.38
2023-03-16T12:30:25.961Z,53.13
2023-03-16T12:33:44.764Z,52.29
2023-03-16T12:37:19.656Z,48.94
2023-03-16T12:40:33.931Z,49.25
2023-03-16T12:44:03.316Z,48.77
2023-03-16T12:47:28.520Z,49.00
2023-03-16T12:50:34.401Z,50.91
2023-03-16T12:53:55.127Z,49.58
2023-03-16T12:57:22.312Z,50.17
2023-03-16T13:00:36.004Z,48.76
2023-03-16T13:03:45.577Z,48.85
2023-03-16T13:07:06.155Z,48.17
2023-03-16T13:10:14.763Z,47.71
2023-03-16T13:13:30.472Z,48.44
2023-03-16T13:16:39.165Z,49.34
2023-03-16T13:19:47.786Z,48.36
2023-03-16T13:23:10.507Z,48.53
2023-03-16T13:26:42.411Z,49.64
2023-03-16T13:30:18.068Z,48.30
2023-03-16T13:33:44.092Z,48.58
2023-03-16T13:37:14.529Z,46.28
2023-03-16T13:40:22.268Z,46.48
2023-03-16T13:43:44.257Z,46.80
2023-03-16T13:46:52.574Z,47.02
2023-03-16T13:50:03.806Z,46.22
2023-03-16T13:53:15.870Z,46.00
2023-03-16T13:56:33.256Z,46.32
2023-03-16T14:00:05.847Z,46.04
2023-03-16T14:03:16.329Z,45.71
2023-03-16T14:06:42.409Z,46.79
2023-03-16T14:09:52.595Z,46.85
2023-03-16T14:12:59.745Z,45.95
2023-03-16T14:16:14.500Z,46.47
2023-03-16T14:19:24.686Z,46.68
2023-03-16T14:22:31.960Z,47.02
2023-03-16T14:25:40.919Z,46.03
2023-03-16T14:29:09.576Z,45.01
2023-03-16T14:32:28.326Z,43.88
2023-03-16T14:35:57.213Z,43.83
2023-03-16T14:39:13.350Z,44.55
2023-03-16T14:42:22.260Z,44.49
2023-03-16T14:45:48.587Z,44.62
2023-03-16T14:49:00.335Z,42.15
2023-03-16T14:52:19.000Z,41.87
2023-03-16T14:55:24.922Z,42.58
2023-03-16T14:58:36.521Z,41.69
2023-03-16T15:01:46.858Z,42.82
2023-03-16T15:05:20.944Z,42.52
2023-03-16T15:08:43.561Z,41.25
2023-03-16T15:11:55.380Z,42.13
2023-03-16T15:15:16.177Z,41.08
2023-03-16T15:18:24.232Z,41.56
2023-03-16T15:21:41.247Z,41.60
2023-03-16T15:24:46.681Z,41.22
2023-03-16T15:27:52.847Z,41.11
2023-03-16T15:31:02.546Z,41.01
2023-03-16T15:34:07.995Z,41.60
2023-03-16T15:37:15.539Z,42.25
2023-03-16T15:40:25.300Z,42.17
2023-03-16T15:43:32.188Z,42.34
2023-03-16T15:46:46.805Z,42.46
2023-03-16T15:49:59.598Z,42.89
2023-03-16T15:53:30.397Z,43.18
2023-03-16T15:56:52.770Z,43.41
2023-03-16T16:00:02.471Z,43.17
2023-03-16T16:03:12.826Z,43.50
2023-03-16T16:06:36.742Z,43.64
2023-03-16T16:09:44.390Z,43.30
2023-03-16T16:12:52.297Z,43.47
2023-03-16T16:16:00.129Z,43.75
2023-03-16T16:19:05.824Z,44.10
2023-03-16T16:22:16.539Z,44.39
2023-03-16T16:25:33.178Z,44.06
2023-03-16T16:28:59.601Z,43.65
2023-03-16T16:32:24.276Z,43.67
2023-03-16T16:35:39.770Z,43.70
2023-03-16T16:38:45.596Z,44.13
2023-03-16T16:42:04.218Z,44.59
2023-03-16T16:45:15.826Z,45.14
2023-03-16T16:48:30.283Z,45.36
2023-03-16T16:51:56.137Z,45.90
2023-03-16T16:55:11.943Z,46.48
2023-03-16T16:58:24.592Z,47.42
2023-03-16T17:01:51.902Z,48.26
2023-03-16T17:05:08.319Z,49.02
2023-03-16T17:08:14.330Z,49.96
2023-03-16T17:11:28.762Z,50.89
2023-03-16T17:14:54.509Z,51.82
2023-03-16T17:18:07.968Z,52.79
2023-03-16T17:21:17.141Z,53.66
2023-03-16T17:24:35.703Z,54.34
2023-03-16T17:28:01.505Z,55.26
2023-03-16T17:31:27.696Z,55.91
2023-03-16T17:34:42.364Z,56.47
2023-03-16T17:38:17.689Z,57.22
2023-03-16T17:41:26.699Z,57.67
2023-03-16T17:44:37.107Z,58.23
2023-03-16T17:47:52.597Z,58.59
2023-03-16T17:51:15.239Z,59.18
2023-03-16T17:54:34.756Z,59.49
2023-03-16T17:57:54.363Z,59.63
2023-03-16T18:01:28.350Z,60.28
2023-03-16T18:04:54.065Z,60.72
2023-03-16T18:08:21.907Z,61.23
2023-03-16T18:11:35.623Z,61.75
2023-03-16T18:14:58.442Z,62.10
2023-03-16T18:18:08.734Z,62.35
2023-03-16T18:21:33.585Z,62.52
2023-03-16T18:24:59.999Z,62.91
2023-03-16T18:28:09.925Z,63.12
2023-03-16T18:31:21.940Z,63.23
2023-03-16T18:34:47.647Z,63.21
2023-03-16T18:38:18.025Z,63.42
2023-03-16T18:41:44.747Z,63.46
2023-03-16T18:45:04.300Z,64.41
2023-03-16T18:48:24.841Z,64.72
2023-03-16T18:51:51.729Z,64.92
2023-03-16T18:55:16.741Z,64.86
2023-03-16T18:58:41.131Z,65.02
2023-03-16T19:02:17.692Z,65.77
2023-03-16T19:05:30.252Z,66.09
2023-03-16T19:08:42.009Z,66.41
2023-03-16T19:11:53.279Z,66.37
2023-03-16T19:15:03.368Z,66.76
2023-03-16T19:18:29.411Z,67.70
2023-03-16T19:21:56.484Z,67.86
2023-03-16T19:25:25.260Z,67.97
2023-03-16T19:28:43.328Z,68.00
2023-03-16T19:32:00.848Z,68.25
2023-03-16T19:35:18.521Z,68.66
2023-03-16T19:38:24.696Z,68.96
2023-03-16T19:41:34.439Z,69.00
2023-03-16T19:44:51.197Z,69.25
2023-03-16T19:48:12.746Z,69.40
2023-03-16T19:51:32.902Z,69.51
2023-03-16T19:54:44.109Z,69.71
2023-03-16T19:58:19.079Z,70.05
2023-03-16T20:01:33.025Z,70.01
2023-03-16T20:04:38.650Z,70.26
2023-03-16T20:07:44.550Z,70.49
2023-03-16T20:11:15.483Z,70.67
2023-03-16T20:14:41.532Z,71.13
2023-03-16T20:17:51.139Z,71.22
2023-03-16T20:21:17.569Z,71.50
2023-03-16T20:24:24.137Z,71.73
2023-03-16T20:27:29.941Z,72.20
2023-03-16T20:30:43.704Z,72.41
2023-03-16T20:34:00.455Z,72.72
2023-03-16T20:37:20.825Z,72.70
2023-03-16T20:40:40.142Z,72.70
2023-03-16T20:44:00.059Z,72.75
2023-03-16T20:47:18.990Z,72.96
2023-03-16T20:50:34.000Z,73.05
2023-03-16T20:53:58.766Z,73.14
2023-03-16T20:57:12.399Z,73.33
2023-03-16T21:00:39.196Z,73.31
2023-03-16T21:03:52.061Z,73.23
2023-03-16T21:07:10.851Z,73.27
2023-03-16T21:10:28.314Z,73.54
2023-03-16T21:13:36.935Z,73.81
2023-03-16T21:16:45.535Z,73.70
2023-03-16T21:20:02.499Z,73.74
2023-03-16T21:23:22.036Z,73.74
2023-03-16T21:26:30.004Z,74.02
2023-03-16T21:29:56.935Z,74.11
2023-03-16T21:33:26.076Z,74.20
2023-03-16T21:36:44.341Z,74.40
2023-03-16T21:40:02.600Z,74.35
2023-03-16T21:43:28.687Z,74.45
2023-03-16T21:46:47.367Z,74.62
2023-03-16T21:49:53.881Z,74.80
2023-03-16T21:53:11.522Z,74.90
2023-03-16T21:56:30.653Z,75.00
2023-03-16T21:59:45.764Z,75.00
2023-03-16T22:03:03.422Z,75.26
2023-03-16T22:06:23.797Z,75.69
2023-03-16T22:09:49.567Z,76.03
2023-03-16T22:13:00.179Z,76.25
2023-03-16T22:16:27.060Z,76.36
2023-03-16T22:19:53.162Z,76.31
2023-03-16T22:23:27.547Z,76.40
2023-03-16T22:26:53.801Z,76.55
2023-03-16T22:30:22.190Z,76.51
2023-03-16T22:33:48.709Z,76.68
2023-03-16T22:37:17.479Z,77.01
2023-03-16T22:40:43.846Z,77.06
2023-03-16T22:44:13.352Z,77.33
2023-03-16T22:47:39.240Z,77.41
2023-03-16T22:51:05.644Z,77.76
2023-03-16T22:54:31.669Z,77.76
2023-03-16T22:58:01.442Z,77.67
2023-03-16T23:01:30.166Z,77.40
2023-03-16T23:04:56.080Z,77.41
2023-03-16T23:08:23.855Z,77.34
2023-03-16T23:11:53.436Z,77.01
2023-03-16T23:15:21.150Z,76.83
2023-03-16T23:18:46.781Z,76.74
2023-03-16T23:22:13.646Z,76.52
2023-03-16T23:25:39.376Z,76.60
2023-03-16T23:29:05.231Z,76.75
2023-03-16T23:32:31.209Z,76.78
2023-03-16T23:35:57.111Z,76.69
2023-03-16T23:39:24.077Z,76.87
2023-03-16T23:42:49.846Z,76.94
2023-03-16T23:46:18.422Z,76.85
2023-03-16T23:49:44.480Z,76.72
2023-03-16T23:53:13.925Z,76.86
2023-03-16T23:56:38.070Z,76.86
